Bombay, New York
Current Conditions -  °F | °C
As of 11:00 PM on Saturday 25 Oct 2014 (Local Time) from KMSS Reporting Station
Light Rain Light Rain  
Wind Chill: 45°   Ceiling: 3600
Heat Index: 49°   Visibility: 10mi
Dew Point: 43°   Wind: 8mph
Humidity: 80%   Direction: 320°NW
Pressure: 29.49"   Gusts: NA
Location:  44.94°N, 74.57°W
Report Text: KMSS 260300Z AUTO 32007KT 10SM -RA FEW020 SCT030 OVC036 09/06 A2949 RMK AO2 P0000 T00940061
Loading
Personal Weather Stations






























Interactive Weather Map
Tropical Storm Tracking
New forecast layout! Learn more

10-Day Weather Forecast

Advertisements
Track Severe Weather on mobile